To NAV CANADA Home Page Login to a new session Search on AWWS site Disclaimer Vers la page française équivalente Tips FAQ What's new on the site To the Forecasts and Observations / NOTAM section To "File a Flight Plan" website Publications and other links Update of the User's profile FIC Telephone Numbers My Weather Data Folder Route Weather Data Regional Weather Data Local Weather Data To the Forecasts and Observations / NOTAM section
Request Generated 04/22/2019 at 12:48:22 UTC . Weather information available at that time is displayed.

METAR/TAF

MONTREAL/ST-HUBERT/QC    (show WxCam)

METAR CYHU 221200Z AUTO 03006KT 9SM CLR 10/06 A3024 RMK SLP242=
METAR CYHU 221100Z AUTO 01004KT 9SM FEW036 08/06 A3023 RMK SLP238=
METAR CYHU 221000Z AUTO 33003KT 9SM OVC036 08/06 A3021 RMK SLP231=

TAF CYHU 221139Z 2212/2312 01005KT P6SM FEW040
FM221400 02015KT P6SM SCT040 TEMPO 2214/2223 BKN040
BECMG 2220/2222 02012G22KT
FM222300 03012G22KT P6SM SCT030
RMK FCST BASED ON AUTO OBS. NXT FCST BY 221800Z=
Your time UTC time
Weather data provided by Environment Canada and NAV CANADA